Time;durP1;ratioP1;P1;durP2;ratioP2;P2;SDS_P1;SDS_P2;PMS_P1;PMS_P2;Temp;Humidity;BMP_temperature;BMP_pressure;BME280_temperature;BME280_humidity;BME280_pressure;Samples;Min_cycle;Max_cycle;Signal;HPM_P1;HPM_P2
2022/08/23 00:01:30;;;;;;;11.55;6.22;;;16.90;99.90;;;;;;5070317;28;20048;-76
2022/08/23 00:04:00;;;;;;;8.75;5.85;;;16.80;99.90;;;;;;5070865;28;20115;-76
2022/08/23 00:06:26;;;;;;;10.48;6.10;;;16.70;99.90;;;;;;5070822;28;20056;-75
2022/08/23 00:08:53;;;;;;;8.13;5.65;;;16.70;99.90;;;;;;5070748;28;20049;-76
2022/08/23 00:11:44;;;;;;;9.13;6.15;;;16.70;99.90;;;;;;5070657;28;20376;-75
2022/08/23 00:14:24;;;;;;;13.48;6.53;;;16.80;99.90;;;;;;5070815;28;20404;-76
2022/08/23 00:16:50;;;;;;;11.98;6.15;;;16.80;99.90;;;;;;5070518;28;20484;-76
2022/08/23 00:19:17;;;;;;;15.52;6.45;;;16.70;99.90;;;;;;5070302;28;20040;-76
2022/08/23 00:21:45;;;;;;;11.07;6.60;;;16.70;99.90;;;;;;5075453;28;20036;-75
2022/08/23 00:24:12;;;;;;;12.80;7.13;;;16.70;99.90;;;;;;5077130;28;20040;-74
2022/08/23 00:26:55;;;;;;;11.77;6.50;;;16.60;99.90;;;;;;5059920;28;20043;-76
2022/08/23 00:29:24;;;;;;;14.20;7.07;;;16.60;99.90;;;;;;5079005;28;20049;-75
2022/08/23 00:31:51;;;;;;;14.13;7.32;;;16.50;99.90;;;;;;5071201;28;20039;-75
2022/08/23 00:34:17;;;;;;;12.73;7.95;;;16.50;99.90;;;;;;5070717;28;20063;-75
2022/08/23 00:36:43;;;;;;;14.73;7.25;;;16.50;99.90;;;;;;5070021;28;20479;-76
2022/08/23 00:39:10;;;;;;;15.00;7.18;;;16.50;99.90;;;;;;5070131;28;20048;-76
2022/08/23 00:41:36;;;;;;;13.25;6.43;;;16.40;99.90;;;;;;5069669;28;20040;-76
2022/08/23 00:49:38;;;;;;;12.63;7.68;;;16.40;99.90;;;;;;5069672;28;20049;-76
2022/08/23 00:52:13;;;;;;;14.85;7.97;;;16.40;99.90;;;;;;5071250;28;20040;-76
2022/08/23 00:54:40;;;;;;;13.27;7.60;;;16.30;99.90;;;;;;5090589;28;20092;-78
2022/08/23 00:57:11;;;;;;;12.30;7.53;;;16.30;99.90;;;;;;5096671;28;20044;-78
2022/08/23 00:59:37;;;;;;;13.18;8.02;;;16.40;99.90;;;;;;5091205;28;20048;-76
2022/08/23 01:02:07;;;;;;;9.07;6.68;;;16.30;99.90;;;;;;5069924;28;20044;-77
2022/08/23 01:04:38;;;;;;;17.30;7.63;;;16.40;99.90;;;;;;5069587;28;20071;-76
2022/08/23 01:07:40;;;;;;;11.75;6.78;;;16.40;99.90;;;;;;5069756;28;20040;-76
2022/08/23 01:10:16;;;;;;;11.80;7.40;;;16.40;99.90;;;;;;5065170;28;20098;-76
2022/08/23 01:12:47;;;;;;;14.43;7.63;;;16.40;99.90;;;;;;5069773;28;20190;-76
2022/08/23 01:15:22;;;;;;;11.85;7.40;;;16.40;99.90;;;;;;5070928;28;20410;-77
2022/08/23 01:17:54;;;;;;;18.42;8.43;;;16.50;99.90;;;;;;5069712;28;20049;-77
2022/08/23 01:20:23;;;;;;;10.45;8.13;;;16.40;99.90;;;;;;5070739;28;20119;-76
2022/08/23 01:23:21;;;;;;;11.45;7.47;;;16.40;99.90;;;;;;5069516;28;20041;-77
2022/08/23 01:25:47;;;;;;;19.83;7.70;;;16.40;99.90;;;;;;5035484;28;20061;-76
2022/08/23 01:28:13;;;;;;;10.05;6.55;;;16.40;99.90;;;;;;5069754;28;20067;-76
2022/08/23 01:30:42;;;;;;;12.80;6.75;;;16.40;99.90;;;;;;5069496;28;20120;-76
2022/08/23 01:33:07;;;;;;;11.95;6.78;;;16.30;99.90;;;;;;5069547;28;20048;-76
2022/08/23 01:35:41;;;;;;;13.60;6.97;;;16.30;99.90;;;;;;5069731;28;20120;-76
2022/08/23 01:38:08;;;;;;;8.65;6.75;;;16.20;99.90;;;;;;5069491;28;20045;-75
2022/08/23 01:40:34;;;;;;;11.10;6.85;;;16.20;99.90;;;;;;5074570;28;20123;-76
2022/08/23 01:43:00;;;;;;;13.40;6.95;;;16.20;99.90;;;;;;5056866;28;20040;-76
2022/08/23 01:45:27;;;;;;;9.95;7.13;;;16.10;99.90;;;;;;5073352;28;20051;-76
2022/08/23 01:47:52;;;;;;;12.55;7.70;;;16.10;99.90;;;;;;5073332;28;20407;-75
2022/08/23 01:50:18;;;;;;;11.18;7.30;;;16.00;99.90;;;;;;5073162;28;20047;-77
2022/08/23 01:52:44;;;;;;;10.68;7.40;;;15.90;99.90;;;;;;5073237;28;20112;-77
2022/08/23 01:55:10;;;;;;;14.68;8.20;;;15.90;99.90;;;;;;5073171;28;20044;-76
2022/08/23 01:57:36;;;;;;;14.55;8.20;;;15.90;99.90;;;;;;5073161;28;20044;-76
2022/08/23 02:00:04;;;;;;;14.05;7.82;;;15.80;99.90;;;;;;5074044;28;20040;-76
2022/08/23 02:02:30;;;;;;;9.88;7.53;;;15.80;99.90;;;;;;5073347;28;20440;-76
2022/08/23 02:04:56;;;;;;;10.70;7.75;;;15.70;99.90;;;;;;5072977;28;20055;-76
2022/08/23 02:07:25;;;;;;;16.25;8.32;;;15.70;99.90;;;;;;5073028;28;20040;-76
2022/08/23 02:09:51;;;;;;;15.95;8.13;;;15.70;99.90;;;;;;5072992;28;20395;-75
2022/08/23 02:12:17;;;;;;;11.13;8.30;;;15.60;99.90;;;;;;5072828;28;20094;-76
2022/08/23 02:14:42;;;;;;;12.20;7.32;;;15.60;99.90;;;;;;5072944;28;20047;-75
2022/08/23 02:17:08;;;;;;;13.30;7.93;;;15.60;99.90;;;;;;5073624;28;20446;-76
2022/08/23 02:19:35;;;;;;;14.80;8.07;;;15.60;99.90;;;;;;5073913;28;20054;-76
2022/08/23 02:22:02;;;;;;;13.90;8.73;;;15.60;99.90;;;;;;5073608;28;20059;-77
2022/08/23 02:24:30;;;;;;;13.60;8.13;;;15.60;99.90;;;;;;5073640;28;20041;-76
2022/08/23 02:26:59;;;;;;;13.73;9.02;;;15.60;99.90;;;;;;5073356;28;20044;-76
2022/08/23 02:29:28;;;;;;;13.07;7.93;;;15.70;99.90;;;;;;5073578;28;20041;-76
2022/08/23 02:31:54;;;;;;;13.77;7.07;;;15.70;99.90;;;;;;5074519;28;20391;-76
2022/08/23 02:34:20;;;;;;;15.25;7.78;;;15.70;99.90;;;;;;5073666;28;20055;-76
2022/08/23 02:36:46;;;;;;;12.80;7.30;;;15.70;99.90;;;;;;5073425;28;20040;-76
2022/08/23 02:39:14;;;;;;;12.25;7.90;;;15.60;99.90;;;;;;5073501;28;20040;-76
2022/08/23 02:41:40;;;;;;;9.90;7.50;;;15.60;99.90;;;;;;5073038;28;20040;-76
2022/08/23 02:44:05;;;;;;;10.02;7.65;;;15.60;99.90;;;;;;5072989;28;20040;-76
2022/08/23 02:46:31;;;;;;;10.93;7.22;;;15.60;99.90;;;;;;5073393;28;20048;-76
2022/08/23 02:48:57;;;;;;;11.20;7.10;;;15.60;99.90;;;;;;5073234;28;20036;-76
2022/08/23 02:51:22;;;;;;;11.18;7.68;;;15.60;99.90;;;;;;5072545;28;20043;-76
2022/08/23 02:53:49;;;;;;;11.68;7.53;;;15.60;99.90;;;;;;5073929;28;20109;-76
2022/08/23 02:56:16;;;;;;;12.23;7.10;;;15.60;99.90;;;;;;5072932;28;20063;-76
2022/08/23 02:58:42;;;;;;;9.75;6.55;;;15.60;99.90;;;;;;5074100;28;20185;-76
2022/08/23 03:01:24;;;;;;;9.48;7.18;;;15.60;99.90;;;;;;5072504;28;20051;-76
2022/08/23 03:03:49;;;;;;;12.10;7.43;;;15.60;99.90;;;;;;5073140;28;20048;-76
2022/08/23 03:06:16;;;;;;;11.02;7.05;;;15.60;99.90;;;;;;5072653;28;20111;-76
2022/08/23 03:08:42;;;;;;;11.75;7.32;;;15.60;99.90;;;;;;5072603;28;20037;-76
2022/08/23 03:11:14;;;;;;;9.63;6.75;;;15.50;99.90;;;;;;5072821;28;20044;-76
2022/08/23 03:13:41;;;;;;;23.27;8.05;;;15.50;99.90;;;;;;5056219;28;20123;-76
2022/08/23 03:16:08;;;;;;;13.63;8.52;;;15.50;99.90;;;;;;5072660;28;20049;-76
2022/08/23 03:18:35;;;;;;;15.50;9.30;;;15.50;99.90;;;;;;5072657;28;20044;-76
2022/08/23 03:21:02;;;;;;;11.57;7.65;;;15.40;99.90;;;;;;5072541;28;20062;-76
2022/08/23 03:23:28;;;;;;;13.77;8.68;;;15.40;99.90;;;;;;5072190;28;20094;-76
2022/08/23 03:25:56;;;;;;;14.95;7.80;;;15.30;99.90;;;;;;5072337;28;20041;-76
2022/08/23 03:28:22;;;;;;;10.60;7.60;;;15.30;99.90;;;;;;5072524;28;20063;-76
2022/08/23 03:30:48;;;;;;;12.52;7.97;;;15.30;99.90;;;;;;5071930;28;20487;-76
2022/08/23 03:33:14;;;;;;;12.50;7.32;;;15.30;99.90;;;;;;5072304;28;20041;-76
2022/08/23 03:35:40;;;;;;;11.75;8.25;;;15.30;99.90;;;;;;5073080;28;20507;-76
2022/08/23 03:38:06;;;;;;;12.77;8.30;;;15.20;99.90;;;;;;5071900;28;20114;-76
2022/08/23 03:40:32;;;;;;;12.77;8.50;;;15.20;99.90;;;;;;5071788;28;20525;-76
2022/08/23 03:42:57;;;;;;;14.23;8.20;;;15.20;99.90;;;;;;5071653;28;20049;-76
2022/08/23 03:45:23;;;;;;;10.73;8.30;;;15.20;99.90;;;;;;5071978;28;20407;-76
2022/08/23 03:47:49;;;;;;;14.75;9.05;;;15.10;99.90;;;;;;5071763;28;20040;-76
2022/08/23 03:50:14;;;;;;;13.82;8.65;;;15.10;99.90;;;;;;5071590;28;20076;-76
2022/08/23 03:52:40;;;;;;;13.45;8.48;;;15.10;99.90;;;;;;5071535;28;20480;-76
2022/08/23 03:55:06;;;;;;;12.60;8.50;;;15.00;99.90;;;;;;5072672;28;20040;-76
2022/08/23 03:57:32;;;;;;;14.98;8.18;;;15.00;99.90;;;;;;5071615;28;20129;-76
2022/08/23 03:59:58;;;;;;;13.60;8.30;;;15.00;99.90;;;;;;5071303;28;20050;-76
2022/08/23 04:02:25;;;;;;;12.98;8.57;;;15.10;99.90;;;;;;5070492;28;20117;-77
2022/08/23 04:04:50;;;;;;;14.75;8.75;;;15.10;99.90;;;;;;5070818;28;20518;-76
2022/08/23 04:07:21;;;;;;;12.40;8.25;;;15.10;99.90;;;;;;5070492;28;20036;-77
2022/08/23 04:09:47;;;;;;;11.67;7.63;;;15.20;99.90;;;;;;5053797;28;20066;-77
2022/08/23 04:12:13;;;;;;;12.80;7.55;;;15.20;99.90;;;;;;5071900;28;20279;-77
2022/08/23 04:14:38;;;;;;;11.80;8.20;;;15.20;99.90;;;;;;5070792;28;20086;-77
2022/08/23 04:17:04;;;;;;;15.65;8.57;;;15.20;99.90;;;;;;5071729;28;20480;-75
2022/08/23 04:19:30;;;;;;;11.50;8.27;;;15.20;99.90;;;;;;5070411;28;20032;-78
2022/08/23 04:21:56;;;;;;;14.77;8.52;;;15.20;99.90;;;;;;5070188;28;20036;-78
2022/08/23 04:24:22;;;;;;;13.25;8.20;;;15.20;99.90;;;;;;5070520;28;20279;-78
2022/08/23 04:26:47;;;;;;;13.15;9.35;;;15.20;99.90;;;;;;5070599;28;20507;-77
2022/08/23 04:29:15;;;;;;;14.60;9.07;;;15.20;99.90;;;;;;5070088;28;20032;-77
2022/08/23 04:31:43;;;;;;;13.88;9.85;;;15.20;99.90;;;;;;5069897;28;20052;-78
2022/08/23 04:34:08;;;;;;;16.17;11.10;;;15.30;99.90;;;;;;5070165;28;20119;-78
2022/08/23 04:36:37;;;;;;;15.45;10.80;;;15.20;99.90;;;;;;5071506;28;20206;-78
2022/08/23 04:39:03;;;;;;;12.18;10.05;;;15.30;99.90;;;;;;5071799;28;20459;-78
2022/08/23 04:44:14;;;;;;;16.70;11.07;;;15.40;99.90;;;;;;5069970;28;20094;-78
2022/08/23 04:46:42;;;;;;;15.23;9.43;;;15.40;99.90;;;;;;5070419;28;20395;-77
2022/08/23 04:49:08;;;;;;;13.77;10.10;;;15.40;99.90;;;;;;5069956;28;20044;-77
2022/08/23 04:51:34;;;;;;;15.52;10.07;;;15.40;99.90;;;;;;5070044;28;20071;-78
2022/08/23 04:54:00;;;;;;;16.63;10.45;;;15.40;99.90;;;;;;5070124;28;20518;-78
2022/08/23 04:56:27;;;;;;;14.40;10.57;;;15.30;99.90;;;;;;5054674;28;20045;-78
2022/08/23 04:58:53;;;;;;;18.25;11.00;;;15.40;99.90;;;;;;5077791;28;20052;-73
2022/08/23 05:01:18;;;;;;;16.83;11.13;;;15.40;99.90;;;;;;5096384;28;20024;-73
2022/08/23 05:03:44;;;;;;;15.95;11.50;;;15.40;99.90;;;;;;5084519;28;20036;-78
2022/08/23 05:06:10;;;;;;;19.95;11.00;;;15.40;99.90;;;;;;5069549;28;20049;-78
2022/08/23 05:08:36;;;;;;;15.27;10.32;;;15.40;99.90;;;;;;5069687;28;20104;-79
2022/08/23 05:11:07;;;;;;;19.20;11.70;;;15.50;99.90;;;;;;5069598;28;20040;-79
2022/08/23 05:13:33;;;;;;;19.73;12.70;;;15.60;99.90;;;;;;5069655;28;20531;-80
2022/08/23 05:15:59;;;;;;;17.27;10.80;;;15.80;99.90;;;;;;5069633;28;20041;-80
2022/08/23 05:18:25;;;;;;;17.70;12.15;;;15.90;99.90;;;;;;5070904;28;20113;-80
2022/08/23 05:20:52;;;;;;;16.13;10.23;;;16.00;99.90;;;;;;5069767;28;20090;-80
2022/08/23 05:23:18;;;;;;;15.65;11.70;;;16.10;99.90;;;;;;5067002;28;20123;-79
2022/08/23 05:25:51;;;;;;;18.23;11.32;;;16.20;99.90;;;;;;5070155;28;20491;-79
2022/08/23 05:28:26;;;;;;;17.20;10.90;;;16.30;99.90;;;;;;5053469;28;20040;-79
2022/08/23 05:31:07;;;;;;;19.00;11.40;;;16.30;99.90;;;;;;5073916;28;20086;-80
2022/08/23 05:33:34;;;;;;;19.65;11.90;;;16.30;99.90;;;;;;5069853;28;20040;-79
2022/08/23 05:36:03;;;;;;;15.23;11.68;;;16.40;99.90;;;;;;5069700;28;20040;-80
2022/08/23 05:38:30;;;;;;;25.20;13.75;;;16.60;99.90;;;;;;5069360;28;20040;-80
2022/08/23 05:40:57;;;;;;;25.55;16.83;;;16.80;99.90;;;;;;5068980;28;20041;-80
2022/08/23 05:43:24;;;;;;;22.00;13.60;;;16.80;99.90;;;;;;5069434;28;20097;-78
2022/08/23 05:46:09;;;;;;;19.08;13.60;;;16.90;99.90;;;;;;5069345;28;20045;-79
2022/08/23 05:48:36;;;;;;;15.98;13.52;;;17.00;99.90;;;;;;5070835;28;20040;-77
2022/08/23 05:51:13;;;;;;;19.65;13.27;;;17.10;99.90;;;;;;5068224;28;20044;-78
2022/08/23 05:53:40;;;;;;;17.67;13.75;;;17.30;99.90;;;;;;5069332;28;20040;-77
2022/08/23 05:56:19;;;;;;;15.57;11.77;;;17.40;99.90;;;;;;5069888;28;20072;-77
2022/08/23 05:58:46;;;;;;;17.42;13.20;;;17.50;99.90;;;;;;5069610;28;20442;-77
2022/08/23 06:01:13;;;;;;;16.70;11.32;;;17.60;99.90;;;;;;5070382;28;20040;-77
2022/08/23 06:03:39;;;;;;;17.67;12.93;;;17.70;99.90;;;;;;5069527;28;20064;-77
2022/08/23 06:06:05;;;;;;;18.02;12.45;;;17.80;99.90;;;;;;5069210;28;20051;-77
2022/08/23 06:08:32;;;;;;;22.05;13.48;;;17.80;99.90;;;;;;5069388;28;20139;-77
2022/08/23 06:11:00;;;;;;;19.35;13.73;;;17.90;99.90;;;;;;5052843;28;20115;-77
2022/08/23 06:13:25;;;;;;;19.27;12.32;;;17.90;99.90;;;;;;5069623;28;20526;-77
2022/08/23 06:15:51;;;;;;;18.35;13.07;;;18.00;99.90;;;;;;5069182;28;20060;-77
2022/08/23 06:18:16;;;;;;;18.25;12.50;;;18.10;99.90;;;;;;5069114;28;20048;-77
2022/08/23 06:20:42;;;;;;;18.85;12.48;;;18.10;99.90;;;;;;5069031;28;20055;-77
2022/08/23 06:23:08;;;;;;;20.38;12.88;;;18.20;99.90;;;;;;5068844;28;20041;-77
2022/08/23 06:25:37;;;;;;;17.02;12.98;;;18.30;99.90;;;;;;5070960;28;20403;-77
2022/08/23 06:28:03;;;;;;;16.88;12.18;;;18.40;99.90;;;;;;5072824;28;20058;-77
2022/08/23 06:30:28;;;;;;;19.30;13.50;;;18.50;99.90;;;;;;5072713;28;20036;-77
2022/08/23 06:32:54;;;;;;;15.73;12.73;;;18.50;99.90;;;;;;5072580;28;20035;-77
2022/08/23 06:35:20;;;;;;;16.92;10.88;;;18.70;99.90;;;;;;5072959;28;20052;-78
2022/08/23 06:37:46;;;;;;;15.02;10.93;;;18.80;99.90;;;;;;5072937;28;20305;-78
2022/08/23 06:40:12;;;;;;;16.58;10.63;;;18.90;99.90;;;;;;5072909;28;20114;-78
2022/08/23 06:42:38;;;;;;;13.43;9.63;;;19.00;99.90;;;;;;5072598;28;20048;-78
2022/08/23 06:45:04;;;;;;;14.15;9.10;;;19.10;99.90;;;;;;5072800;28;20044;-77
2022/08/23 06:47:30;;;;;;;13.07;8.95;;;19.10;99.90;;;;;;5072782;28;20066;-78
2022/08/23 06:49:56;;;;;;;12.07;9.02;;;19.10;99.90;;;;;;5072626;28;20432;-78
2022/08/23 06:52:23;;;;;;;12.40;9.18;;;19.20;99.90;;;;;;5072438;28;20048;-78
2022/08/23 06:54:49;;;;;;;10.27;8.68;;;19.30;99.90;;;;;;5073178;28;20510;-78
2022/08/23 06:57:14;;;;;;;9.82;8.50;;;19.40;99.90;;;;;;5072653;28;20052;-78
2022/08/23 06:59:40;;;;;;;12.73;8.93;;;19.70;99.90;;;;;;5072192;28;20067;-78
2022/08/23 07:02:07;;;;;;;14.93;9.00;;;20.20;99.90;;;;;;5083015;28;20055;-77
2022/08/23 07:04:38;;;;;;;9.00;8.07;;;20.50;99.90;;;;;;5089691;28;20048;-78
2022/08/23 07:07:05;;;;;;;11.30;8.48;;;20.70;99.90;;;;;;5091800;28;20036;-78
2022/08/23 07:09:31;;;;;;;8.88;7.85;;;20.80;99.90;;;;;;5091674;28;20195;-77
2022/08/23 07:11:57;;;;;;;11.10;8.50;;;20.90;99.90;;;;;;5076997;28;20108;-79
2022/08/23 07:14:23;;;;;;;9.65;7.70;;;21.10;99.90;;;;;;5072715;28;20085;-78
2022/08/23 07:16:58;;;;;;;9.73;7.78;;;21.40;99.90;;;;;;5072415;28;20047;-79
2022/08/23 07:19:27;;;;;;;8.93;7.18;;;21.50;99.90;;;;;;5073667;28;20044;-78
2022/08/23 07:21:53;;;;;;;10.15;7.07;;;21.60;99.90;;;;;;5072223;28;20158;-78
2022/08/23 07:24:19;;;;;;;11.35;6.57;;;21.90;99.90;;;;;;5072560;28;20048;-78
2022/08/23 07:26:46;;;;;;;9.52;6.72;;;22.20;99.90;;;;;;5072277;28;20032;-79
2022/08/23 07:29:14;;;;;;;11.60;6.68;;;22.40;99.90;;;;;;5071884;28;20102;-78
2022/08/23 07:31:43;;;;;;;11.75;6.60;;;22.60;99.90;;;;;;5071997;28;20201;-78
2022/08/23 07:34:10;;;;;;;9.10;6.20;;;22.90;99.90;;;;;;5071779;28;20045;-79
2022/08/23 07:36:36;;;;;;;9.23;7.15;;;23.00;99.90;;;;;;5070353;28;20128;-77
2022/08/23 07:39:04;;;;;;;11.85;6.75;;;23.00;99.90;;;;;;5071638;28;20101;-78
2022/08/23 07:41:30;;;;;;;8.52;6.40;;;22.80;99.90;;;;;;5071328;28;20047;-79
2022/08/23 07:43:59;;;;;;;9.55;6.88;;;22.80;99.90;;;;;;5071410;28;20408;-79
2022/08/23 07:46:25;;;;;;;9.70;5.95;;;22.80;99.90;;;;;;5071381;28;20098;-78
2022/08/23 07:48:52;;;;;;;15.27;7.53;;;22.70;99.90;;;;;;5071485;28;20032;-78
2022/08/23 07:51:18;;;;;;;8.32;6.28;;;22.70;99.90;;;;;;5071393;28;20127;-79
2022/08/23 07:53:46;;;;;;;9.48;6.38;;;22.80;99.90;;;;;;5071395;28;20071;-78
2022/08/23 07:56:14;;;;;;;10.20;6.72;;;22.70;99.90;;;;;;5071330;28;20040;-79
2022/08/23 07:58:40;;;;;;;10.15;6.75;;;22.80;99.90;;;;;;5071902;28;20052;-78
2022/08/23 08:01:15;;;;;;;7.50;6.25;;;22.90;99.90;;;;;;5071149;28;20110;-79
2022/08/23 08:03:45;;;;;;;8.60;6.68;;;23.10;99.90;;;;;;5071177;28;20040;-78
2022/08/23 08:06:13;;;;;;;8.52;6.82;;;23.20;99.90;;;;;;5055663;28;20264;-80
2022/08/23 08:08:40;;;;;;;9.85;6.85;;;23.20;99.90;;;;;;5056286;28;20050;-76
2022/08/23 08:11:07;;;;;;;8.88;6.47;;;23.40;99.90;;;;;;5071712;28;20099;-79
2022/08/23 08:13:37;;;;;;;12.40;7.43;;;23.60;99.90;;;;;;5071812;28;20045;-79
2022/08/23 08:16:02;;;;;;;9.75;7.40;;;23.80;99.90;;;;;;5072050;28;20049;-78
2022/08/23 08:18:28;;;;;;;13.05;7.68;;;23.80;99.90;;;;;;5071838;28;20047;-78
2022/08/23 08:20:54;;;;;;;10.82;6.95;;;23.80;99.90;;;;;;5071256;28;20047;-80
2022/08/23 08:23:20;;;;;;;12.52;7.47;;;23.80;99.90;;;;;;5072595;28;20036;-78
2022/08/23 08:25:45;;;;;;;11.95;8.05;;;23.90;99.90;;;;;;5070782;28;20049;-78
2022/08/23 08:28:11;;;;;;;11.90;7.53;;;24.00;99.90;;;;;;5071113;28;20127;-79
2022/08/23 08:30:38;;;;;;;10.43;8.52;;;24.10;99.90;;;;;;5070991;28;20609;-77
2022/08/23 08:33:04;;;;;;;9.57;8.02;;;24.20;99.90;;;;;;5070977;28;20072;-79
2022/08/23 08:35:30;;;;;;;14.25;8.27;;;24.50;99.90;;;;;;5070834;28;20048;-78
2022/08/23 08:37:55;;;;;;;12.10;8.43;;;24.80;99.90;;;;;;5083904;28;20127;-78
2022/08/23 08:40:30;;;;;;;8.63;7.13;;;25.20;99.90;;;;;;5093891;28;20032;-82
2022/08/23 08:43:08;;;;;;;11.50;7.35;;;25.60;99.90;;;;;;5092244;28;20107;-79
2022/08/23 08:46:00;;;;;;;9.95;6.78;;;26.10;99.90;;;;;;5096574;28;20041;-82
2022/08/23 08:48:28;;;;;;;8.70;6.25;;;26.50;99.90;;;;;;5070201;28;20377;-78
2022/08/23 08:51:00;;;;;;;8.18;5.38;;;26.80;99.90;;;;;;5071298;28;20573;-78
2022/08/23 08:53:35;;;;;;;7.15;4.72;;;26.90;99.90;;;;;;5071538;28;20438;-76
2022/08/23 08:56:31;;;;;;;8.52;5.32;;;27.00;99.90;;;;;;5070394;28;20044;-76
2022/08/23 08:59:06;;;;;;;8.45;5.10;;;27.10;99.90;;;;;;5069923;28;20044;-77
2022/08/23 09:01:35;;;;;;;7.15;5.25;;;26.90;99.90;;;;;;5069851;28;20120;-77
2022/08/23 09:04:02;;;;;;;7.18;4.75;;;26.70;99.90;;;;;;5069929;28;20123;-77
2022/08/23 09:06:40;;;;;;;6.90;4.32;;;26.60;99.90;;;;;;5069864;28;20075;-76
2022/08/23 09:09:08;;;;;;;8.57;3.85;;;26.50;99.90;;;;;;5053681;28;20068;-82
2022/08/23 09:11:46;;;;;;;5.65;4.07;;;26.50;99.90;;;;;;5053071;28;20037;-82
2022/08/23 09:14:17;;;;;;;7.43;3.85;;;26.50;99.90;;;;;;5053755;28;20039;-83
2022/08/23 09:16:56;;;;;;;;;;;26.60;99.90;;;;;;5070621;28;20091;-82
2022/08/23 09:19:24;;;;;;;5.63;3.88;;;26.60;99.90;;;;;;5070070;28;19921;-81
2022/08/23 09:22:12;;;;;;;5.45;4.07;;;26.90;99.90;;;;;;5052754;28;20036;-82
2022/08/23 09:24:38;;;;;;;8.38;4.53;;;27.70;98.90;;;;;;5053106;28;20045;-82
2022/08/23 09:27:04;;;;;;;7.43;4.35;;;28.20;99.90;;;;;;5052932;28;20047;-83
2022/08/23 09:29:32;;;;;;;7.32;5.43;;;28.40;99.90;;;;;;5052898;28;20068;-80
2022/08/23 09:32:04;;;;;;;6.57;4.13;;;28.70;99.70;;;;;;5069875;28;20047;-83
2022/08/23 09:34:36;;;;;;;8.20;4.10;;;28.80;99.90;;;;;;5053256;28;20408;-83
2022/08/23 09:37:23;;;;;;;6.72;3.92;;;29.20;92.00;;;;;;5053085;28;20052;-82
2022/08/23 09:40:26;;;;;;;6.75;4.47;;;29.60;78.90;;;;;;5069251;28;20044;-81
2022/08/23 09:43:10;;;;;;;7.97;4.93;;;29.70;77.00;;;;;;5053048;28;20373;-82
2022/08/23 09:45:39;;;;;;;7.20;5.10;;;29.60;86.40;;;;;;5069620;28;20041;-81
2022/08/23 09:48:10;;;;;;;9.90;5.97;;;29.70;89.10;;;;;;5069824;28;20135;-82
2022/08/23 09:50:41;;;;;;;7.10;4.80;;;29.50;88.60;;;;;;5069179;28;20502;-82
2022/08/23 09:53:10;;;;;;;10.00;5.38;;;29.50;90.10;;;;;;5070731;28;20033;-81
2022/08/23 09:55:48;;;;;;;11.02;6.07;;;29.60;92.10;;;;;;5055803;28;20049;-81
2022/08/23 09:58:34;;;;;;;9.25;6.28;;;29.70;86.50;;;;;;5071645;28;20363;-82
2022/08/23 10:01:18;;;;;;;7.63;4.65;;;29.80;75.70;;;;;;5066897;28;20492;-81
2022/08/23 10:03:45;;;;;;;9.30;4.22;;;30.00;87.40;;;;;;5050850;28;20032;-81
2022/08/23 10:06:16;;;;;;;8.40;5.65;;;30.10;91.30;;;;;;5055926;28;20071;-81
2022/08/23 10:08:57;;;;;;;8.57;4.70;;;30.20;88.10;;;;;;5049635;28;20138;-82
2022/08/23 10:11:27;;;;;;;7.25;4.40;;;29.90;81.60;;;;;;5059101;28;20127;-80
2022/08/23 10:13:53;;;;;;;9.38;4.78;;;29.70;89.30;;;;;;5078975;28;20387;-81
2022/08/23 10:16:29;;;;;;;8.23;4.20;;;29.70;88.40;;;;;;5064566;28;20051;-81
2022/08/23 10:19:18;;;;;;;5.10;4.15;;;30.00;76.90;;;;;;5075081;28;20473;-81
2022/08/23 10:22:02;;;;;;;5.03;2.97;;;30.00;78.00;;;;;;5072934;28;20406;-82
2022/08/23 10:24:49;;;;;;;7.85;3.63;;;29.90;82.90;;;;;;5055844;28;20094;-81
2022/08/23 10:30:20;;;;;;;5.85;3.08;;;29.80;77.90;;;;;;5054178;28;20127;-81
2022/08/23 10:32:56;;;;;;;5.05;3.45;;;29.80;73.90;;;;;;5073904;28;20444;-80
2022/08/23 10:35:36;;;;;;;6.45;2.85;;;29.80;66.60;;;;;;5053920;28;20059;-81
2022/08/23 10:38:34;;;;;;;10.35;3.25;;;29.70;72.90;;;;;;5071047;28;20040;-81
2022/08/23 10:41:14;;;;;;;10.15;3.40;;;29.70;78.90;;;;;;5067224;28;20090;-81
2022/08/23 10:43:39;;;;;;;7.45;3.47;;;29.80;69.10;;;;;;5051010;28;20040;-81
2022/08/23 10:46:07;;;;;;;7.50;3.72;;;29.80;70.90;;;;;;5054191;28;20039;-82
2022/08/23 10:48:53;;;;;;;7.57;3.05;;;30.00;65.80;;;;;;5070995;28;20055;-81
2022/08/23 10:51:28;;;;;;;6.80;2.90;;;29.90;70.10;;;;;;5054221;28;20041;-81
2022/08/23 10:54:00;;;;;;;6.57;2.55;;;29.90;66.90;;;;;;5070796;28;20062;-81
2022/08/23 10:56:27;;;;;;;5.82;2.53;;;29.80;64.40;;;;;;5069838;28;20049;-81
2022/08/23 10:59:00;;;;;;;4.93;2.30;;;29.90;64.00;;;;;;5055253;28;20036;-81
2022/08/23 11:01:45;;;;;;;7.20;2.47;;;29.90;67.10;;;;;;5071034;28;20036;-81
2022/08/23 11:04:19;;;;;;;6.80;2.33;;;30.00;68.50;;;;;;5055211;28;20044;-82
2022/08/23 11:06:50;;;;;;;7.00;2.58;;;30.00;67.90;;;;;;5072182;28;20040;-81
2022/08/23 11:09:16;;;;;;;4.72;2.08;;;29.90;70.40;;;;;;5053115;28;20120;-81
2022/08/23 11:11:46;;;;;;;7.20;2.30;;;30.00;65.00;;;;;;5070317;28;20111;-81
2022/08/23 11:14:49;;;;;;;5.55;2.05;;;30.00;65.80;;;;;;5070995;28;20487;-80
2022/08/23 11:17:26;;;;;;;5.47;2.25;;;30.00;68.20;;;;;;5052440;28;20056;-81
2022/08/23 11:20:01;;;;;;;4.22;2.13;;;30.00;67.80;;;;;;5053908;28;20040;-81
2022/08/23 11:22:32;;;;;;;7.90;2.50;;;30.20;63.20;;;;;;5054058;28;20396;-80
2022/08/23 11:25:24;;;;;;;4.70;2.00;;;30.30;60.20;;;;;;5055220;28;20036;-80
2022/08/23 11:28:10;;;;;;;4.78;2.20;;;30.40;57.50;;;;;;5066878;28;20064;-81
2022/08/23 11:30:45;;;;;;;5.93;1.65;;;30.30;58.40;;;;;;5055715;28;20040;-80
2022/08/23 11:33:21;;;;;;;6.32;2.47;;;30.20;61.40;;;;;;5069610;28;20407;-82
2022/08/23 11:36:07;;;;;;;2.63;1.75;;;30.00;63.90;;;;;;5073017;28;20105;-81
2022/08/23 11:38:45;;;;;;;2.97;1.88;;;30.00;61.20;;;;;;5059616;28;20143;-82
2022/08/23 11:41:18;;;;;;;5.72;2.20;;;30.20;58.50;;;;;;5072797;28;20479;-82
2022/08/23 11:43:56;;;;;;;4.85;2.00;;;30.40;58.10;;;;;;5073017;28;20044;-82
2022/08/23 11:46:24;;;;;;;5.75;2.35;;;30.50;56.40;;;;;;5073199;28;20468;-82
2022/08/23 11:49:08;;;;;;;6.47;1.98;;;30.60;59.60;;;;;;5055274;28;20033;-82
2022/08/23 11:51:55;;;;;;;6.63;2.70;;;30.70;58.80;;;;;;5057601;28;20066;-81
2022/08/23 11:54:30;;;;;;;4.68;2.05;;;30.90;54.30;;;;;;5071585;28;20044;-81
2022/08/23 11:57:34;;;;;;;8.48;2.50;;;30.90;57.50;;;;;;5055500;28;20037;-79
2022/08/23 12:00:23;;;;;;;5.15;2.10;;;30.90;57.70;;;;;;5077184;28;20063;-80
2022/08/23 12:03:04;;;;;;;6.30;2.38;;;30.90;57.60;;;;;;5059384;28;20041;-80
2022/08/23 12:05:32;;;;;;;5.63;1.77;;;30.90;57.70;;;;;;5077037;28;20063;-78
2022/08/23 12:08:01;;;;;;;4.10;1.92;;;30.80;57.60;;;;;;5078422;28;20463;-78
2022/08/23 12:10:42;;;;;;;3.55;1.95;;;30.70;58.10;;;;;;5078027;28;20472;-79
2022/08/23 12:13:20;;;;;;;5.35;2.45;;;30.50;52.80;;;;;;5075365;28;20046;-78
2022/08/23 12:16:10;;;;;;;2.80;1.63;;;30.30;55.80;;;;;;5076203;28;20507;-80
2022/08/23 12:18:41;;;;;;;4.07;2.05;;;30.30;58.50;;;;;;5076956;28;20067;-79
2022/08/23 12:21:15;;;;;;;4.05;2.10;;;30.30;58.50;;;;;;5075791;28;20032;-80
2022/08/23 12:23:47;;;;;;;4.13;1.80;;;30.40;58.40;;;;;;5077454;28;20036;-80
2022/08/23 12:26:20;;;;;;;5.25;2.28;;;30.50;59.30;;;;;;5075170;28;20415;-77
2022/08/23 12:28:51;;;;;;;2.78;1.83;;;30.40;56.60;;;;;;5071069;28;20368;-77
2022/08/23 12:31:31;;;;;;;;;;;30.30;55.40;;;;;;5071004;28;20439;-77
2022/08/23 12:33:59;;;;;;;4.70;2.38;;;30.30;56.30;;;;;;5070738;28;19952;-77
2022/08/23 12:36:56;;;;;;;5.75;2.08;;;30.20;57.80;;;;;;5071193;28;20036;-77
2022/08/23 12:39:27;;;;;;;4.68;2.13;;;30.20;58.70;;;;;;5071295;28;20434;-77
2022/08/23 12:42:09;;;;;;;5.55;2.28;;;30.00;61.50;;;;;;5070911;28;20052;-78
2022/08/23 12:44:35;;;;;;;4.50;2.40;;;30.10;58.20;;;;;;5070726;28;20075;-77
2022/08/23 12:47:30;;;;;;;7.88;2.17;;;30.20;58.80;;;;;;5071834;28;20514;-77
2022/08/23 12:50:15;;;;;;;5.03;1.98;;;30.30;58.20;;;;;;5049400;28;20060;-77
2022/08/23 12:52:40;;;;;;;3.88;2.10;;;30.60;56.00;;;;;;5069914;28;20396;-77
2022/08/23 12:55:17;;;;;;;5.53;2.63;;;30.90;57.80;;;;;;5071364;28;20293;-77
2022/08/23 12:57:50;;;;;;;4.65;2.55;;;31.30;55.00;;;;;;5070243;28;20052;-77
2022/08/23 13:00:23;;;;;;;8.18;2.35;;;31.60;54.40;;;;;;5070400;28;20048;-77
2022/08/23 13:03:03;;;;;;;4.20;2.28;;;31.70;54.30;;;;;;5070107;28;20565;-77
2022/08/23 13:05:37;;;;;;;7.73;2.37;;;31.60;53.80;;;;;;5070470;28;20521;-78
2022/08/23 13:08:07;;;;;;;6.80;3.17;;;31.40;55.20;;;;;;5070028;28;20511;-77
2022/08/23 13:10:35;;;;;;;9.48;3.15;;;31.20;54.10;;;;;;5070058;28;20607;-77